sensor_id;sensor_type;location;lat;lon;timestamp;pressure;altitude;pressure_sealevel;temperature;humidity
78613;BME280;67933;51.060;3.638;2023-12-22T00:00:08;100810.34;;;8.13;100.00
78613;BME280;67933;51.060;3.638;2023-12-22T00:02:34;100811.50;;;8.08;100.00
78613;BME280;67933;51.060;3.638;2023-12-22T00:04:59;100823.84;;;8.07;100.00
78613;BME280;67933;51.060;3.638;2023-12-22T00:07:25;100825.63;;;8.07;100.00
78613;BME280;67933;51.060;3.638;2023-12-22T00:09:50;100823.06;;;8.05;100.00
78613;BME280;67933;51.060;3.638;2023-12-22T00:12:15;100812.97;;;7.96;100.00
78613;BME280;67933;51.060;3.638;2023-12-22T00:14:41;100818.31;;;7.95;100.00
78613;BME280;67933;51.060;3.638;2023-12-22T00:17:07;100826.94;;;7.98;100.00
78613;BME280;67933;51.060;3.638;2023-12-22T00:19:33;100809.09;;;8.03;100.00
78613;BME280;67933;51.060;3.638;2023-12-22T00:21:58;100837.63;;;8.14;100.00
78613;BME280;67933;51.060;3.638;2023-12-22T00:24:24;100817.28;;;8.35;100.00
78613;BME280;67933;51.060;3.638;2023-12-22T00:26:49;100817.84;;;8.41;100.00
78613;BME280;67933;51.060;3.638;2023-12-22T00:29:15;100819.56;;;8.42;100.00
78613;BME280;67933;51.060;3.638;2023-12-22T00:31:41;100825.22;;;8.52;100.00
78613;BME280;67933;51.060;3.638;2023-12-22T00:34:06;100807.56;;;8.53;100.00
78613;BME280;67933;51.060;3.638;2023-12-22T00:36:31;100807.84;;;8.65;100.00
78613;BME280;67933;51.060;3.638;2023-12-22T00:38:57;100838.22;;;8.57;100.00
78613;BME280;67933;51.060;3.638;2023-12-22T00:41:22;100813.88;;;8.67;100.00
78613;BME280;67933;51.060;3.638;2023-12-22T00:43:48;100813.81;;;8.69;100.00
78613;BME280;67933;51.060;3.638;2023-12-22T00:46:14;100812.47;;;8.60;100.00
78613;BME280;67933;51.060;3.638;2023-12-22T00:48:39;100797.97;;;8.52;100.00
78613;BME280;67933;51.060;3.638;2023-12-22T00:51:06;100798.94;;;8.49;100.00
78613;BME280;67933;51.060;3.638;2023-12-22T00:53:32;100802.69;;;8.62;100.00
78613;BME280;67933;51.060;3.638;2023-12-22T00:55:57;100811.53;;;8.61;100.00
78613;BME280;67933;51.060;3.638;2023-12-22T00:58:24;100782.31;;;8.64;100.00
78613;BME280;67933;51.060;3.638;2023-12-22T01:00:49;100781.94;;;8.72;100.00
78613;BME280;67933;51.060;3.638;2023-12-22T01:03:15;100796.78;;;8.74;100.00
78613;BME280;67933;51.060;3.638;2023-12-22T01:05:42;100816.00;;;8.78;100.00
78613;BME280;67933;51.060;3.638;2023-12-22T01:08:07;100807.53;;;8.71;100.00
78613;BME280;67933;51.060;3.638;2023-12-22T01:10:32;100804.22;;;8.83;100.00
78613;BME280;67933;51.060;3.638;2023-12-22T01:12:58;100804.34;;;8.82;100.00
78613;BME280;67933;51.060;3.638;2023-12-22T01:15:23;100813.56;;;8.91;100.00
78613;BME280;67933;51.060;3.638;2023-12-22T01:17:48;100826.03;;;8.88;100.00
78613;BME280;67933;51.060;3.638;2023-12-22T01:20:14;100829.31;;;8.94;100.00
78613;BME280;67933;51.060;3.638;2023-12-22T01:22:39;100842.59;;;8.92;100.00
78613;BME280;67933;51.060;3.638;2023-12-22T01:25:05;100836.63;;;8.88;100.00
78613;BME280;67933;51.060;3.638;2023-12-22T01:27:31;100823.16;;;8.93;100.00
78613;BME280;67933;51.060;3.638;2023-12-22T01:29:56;100810.63;;;8.97;100.00
78613;BME280;67933;51.060;3.638;2023-12-22T01:32:22;100812.09;;;9.02;100.00
78613;BME280;67933;51.060;3.638;2023-12-22T01:34:47;100813.28;;;8.97;100.00
78613;BME280;67933;51.060;3.638;2023-12-22T01:37:12;100825.41;;;9.01;100.00
78613;BME280;67933;51.060;3.638;2023-12-22T01:39:38;100841.75;;;8.92;100.00
78613;BME280;67933;51.060;3.638;2023-12-22T01:42:04;100836.84;;;9.01;100.00
78613;BME280;67933;51.060;3.638;2023-12-22T01:44:29;100856.84;;;9.07;100.00
78613;BME280;67933;51.060;3.638;2023-12-22T01:46:55;100844.31;;;9.10;100.00
78613;BME280;67933;51.060;3.638;2023-12-22T01:49:21;100828.19;;;9.15;100.00
78613;BME280;67933;51.060;3.638;2023-12-22T01:51:47;100847.03;;;9.09;100.00
78613;BME280;67933;51.060;3.638;2023-12-22T01:54:14;100837.47;;;8.89;100.00
78613;BME280;67933;51.060;3.638;2023-12-22T01:56:41;100849.31;;;8.82;100.00
78613;BME280;67933;51.060;3.638;2023-12-22T01:59:07;100841.59;;;8.77;100.00
78613;BME280;67933;51.060;3.638;2023-12-22T02:01:33;100863.91;;;8.72;100.00
78613;BME280;67933;51.060;3.638;2023-12-22T02:03:59;100842.22;;;8.65;100.00
78613;BME280;67933;51.060;3.638;2023-12-22T02:06:25;100843.53;;;8.74;100.00
78613;BME280;67933;51.060;3.638;2023-12-22T02:08:50;100856.53;;;8.78;100.00
78613;BME280;67933;51.060;3.638;2023-12-22T02:11:16;100889.03;;;8.63;100.00
78613;BME280;67933;51.060;3.638;2023-12-22T02:13:43;100882.75;;;8.66;100.00
78613;BME280;67933;51.060;3.638;2023-12-22T02:19:12;100894.00;;;8.69;100.00
78613;BME280;67933;51.060;3.638;2023-12-22T02:21:59;100881.03;;;8.65;100.00
78613;BME280;67933;51.060;3.638;2023-12-22T02:24:25;100891.81;;;8.60;100.00
78613;BME280;67933;51.060;3.638;2023-12-22T02:26:52;100891.03;;;8.58;100.00
78613;BME280;67933;51.060;3.638;2023-12-22T02:29:21;100909.69;;;8.55;100.00
78613;BME280;67933;51.060;3.638;2023-12-22T02:31:49;100897.56;;;8.51;100.00
78613;BME280;67933;51.060;3.638;2023-12-22T02:34:19;100902.19;;;8.46;100.00
78613;BME280;67933;51.060;3.638;2023-12-22T02:36:45;100908.63;;;8.40;100.00
78613;BME280;67933;51.060;3.638;2023-12-22T02:39:13;100907.31;;;8.30;100.00
78613;BME280;67933;51.060;3.638;2023-12-22T02:41:40;100913.75;;;8.25;100.00
78613;BME280;67933;51.060;3.638;2023-12-22T02:44:06;100912.34;;;8.18;100.00
78613;BME280;67933;51.060;3.638;2023-12-22T02:46:32;100918.59;;;8.15;100.00
78613;BME280;67933;51.060;3.638;2023-12-22T02:48:57;100905.63;;;8.10;100.00
78613;BME280;67933;51.060;3.638;2023-12-22T02:51:22;100898.75;;;8.06;100.00
78613;BME280;67933;51.060;3.638;2023-12-22T02:53:48;100899.78;;;8.04;100.00
78613;BME280;67933;51.060;3.638;2023-12-22T02:56:13;100898.19;;;8.00;100.00
78613;BME280;67933;51.060;3.638;2023-12-22T02:58:39;100885.84;;;8.00;100.00
78613;BME280;67933;51.060;3.638;2023-12-22T03:01:05;100900.13;;;7.96;100.00
78613;BME280;67933;51.060;3.638;2023-12-22T03:03:30;100895.88;;;7.92;100.00
78613;BME280;67933;51.060;3.638;2023-12-22T03:05:56;100891.03;;;7.83;100.00
78613;BME280;67933;51.060;3.638;2023-12-22T03:08:21;100887.88;;;7.75;100.00
78613;BME280;67933;51.060;3.638;2023-12-22T03:10:46;100870.47;;;7.71;100.00
78613;BME280;67933;51.060;3.638;2023-12-22T03:13:12;100872.47;;;7.66;100.00
78613;BME280;67933;51.060;3.638;2023-12-22T03:15:37;100883.91;;;7.66;100.00
78613;BME280;67933;51.060;3.638;2023-12-22T03:18:03;100878.75;;;7.63;100.00
78613;BME280;67933;51.060;3.638;2023-12-22T03:20:28;100877.16;;;7.59;100.00
78613;BME280;67933;51.060;3.638;2023-12-22T03:22:53;100875.53;;;7.57;100.00
78613;BME280;67933;51.060;3.638;2023-12-22T03:25:19;100874.72;;;7.55;100.00
78613;BME280;67933;51.060;3.638;2023-12-22T03:27:44;100876.44;;;7.56;100.00
78613;BME280;67933;51.060;3.638;2023-12-22T03:30:10;100873.88;;;7.54;100.00
78613;BME280;67933;51.060;3.638;2023-12-22T03:32:35;100862.44;;;7.54;100.00
78613;BME280;67933;51.060;3.638;2023-12-22T03:35:01;100863.38;;;7.53;100.00
78613;BME280;67933;51.060;3.638;2023-12-22T03:37:26;100847.41;;;7.56;100.00
78613;BME280;67933;51.060;3.638;2023-12-22T03:39:51;100830.06;;;7.50;100.00
78613;BME280;67933;51.060;3.638;2023-12-22T03:42:17;100825.44;;;7.55;100.00
78613;BME280;67933;51.060;3.638;2023-12-22T03:44:42;100827.22;;;7.55;100.00
78613;BME280;67933;51.060;3.638;2023-12-22T03:47:08;100823.78;;;7.53;100.00
78613;BME280;67933;51.060;3.638;2023-12-22T03:49:33;100808.97;;;7.50;100.00
78613;BME280;67933;51.060;3.638;2023-12-22T03:51:59;100825.94;;;7.63;100.00
78613;BME280;67933;51.060;3.638;2023-12-22T03:54:24;100841.19;;;7.76;100.00
78613;BME280;67933;51.060;3.638;2023-12-22T03:56:50;100813.25;;;7.71;100.00
78613;BME280;67933;51.060;3.638;2023-12-22T03:59:15;100825.59;;;7.71;100.00
78613;BME280;67933;51.060;3.638;2023-12-22T04:01:43;100831.09;;;7.66;100.00
78613;BME280;67933;51.060;3.638;2023-12-22T04:04:09;100849.22;;;7.74;100.00
78613;BME280;67933;51.060;3.638;2023-12-22T04:06:38;100838.22;;;7.83;100.00
78613;BME280;67933;51.060;3.638;2023-12-22T04:09:04;100838.38;;;7.80;100.00
78613;BME280;67933;51.060;3.638;2023-12-22T04:11:30;100835.50;;;7.85;100.00
78613;BME280;67933;51.060;3.638;2023-12-22T04:13:55;100843.06;;;7.92;100.00
78613;BME280;67933;51.060;3.638;2023-12-22T04:16:20;100832.31;;;7.97;100.00
78613;BME280;67933;51.060;3.638;2023-12-22T04:18:46;100832.31;;;7.97;100.00
78613;BME280;67933;51.060;3.638;2023-12-22T04:21:11;100824.56;;;7.92;100.00
78613;BME280;67933;51.060;3.638;2023-12-22T04:23:36;100823.22;;;8.02;100.00
78613;BME280;67933;51.060;3.638;2023-12-22T04:26:02;100815.63;;;8.13;100.00
78613;BME280;67933;51.060;3.638;2023-12-22T04:28:27;100815.94;;;8.07;100.00
78613;BME280;67933;51.060;3.638;2023-12-22T04:30:52;100821.63;;;7.98;100.00
78613;BME280;67933;51.060;3.638;2023-12-22T04:33:18;100815.06;;;8.07;100.00
78613;BME280;67933;51.060;3.638;2023-12-22T04:35:43;100826.34;;;8.10;100.00
78613;BME280;67933;51.060;3.638;2023-12-22T04:38:09;100818.63;;;8.06;100.00
78613;BME280;67933;51.060;3.638;2023-12-22T04:40:34;100801.09;;;8.05;100.00
78613;BME280;67933;51.060;3.638;2023-12-22T04:42:59;100821.41;;;8.22;100.00
78613;BME280;67933;51.060;3.638;2023-12-22T04:45:25;100825.56;;;8.27;100.00
78613;BME280;67933;51.060;3.638;2023-12-22T04:47:50;100820.84;;;8.34;100.00
78613;BME280;67933;51.060;3.638;2023-12-22T04:50:15;100821.34;;;8.42;100.00
78613;BME280;67933;51.060;3.638;2023-12-22T04:52:41;100810.63;;;8.26;100.00
78613;BME280;67933;51.060;3.638;2023-12-22T04:55:06;100826.75;;;8.39;100.00
78613;BME280;67933;51.060;3.638;2023-12-22T04:57:31;100815.03;;;8.44;100.00
78613;BME280;67933;51.060;3.638;2023-12-22T04:59:57;100810.84;;;8.40;100.00
78613;BME280;67933;51.060;3.638;2023-12-22T05:02:22;100818.75;;;8.40;100.00
78613;BME280;67933;51.060;3.638;2023-12-22T05:04:48;100812.47;;;8.43;100.00
78613;BME280;67933;51.060;3.638;2023-12-22T05:07:13;100803.13;;;8.53;100.00
78613;BME280;67933;51.060;3.638;2023-12-22T05:09:41;100794.28;;;8.54;100.00
78613;BME280;67933;51.060;3.638;2023-12-22T05:12:07;100779.50;;;8.67;100.00
78613;BME280;67933;51.060;3.638;2023-12-22T05:14:32;100798.78;;;8.69;100.00
78613;BME280;67933;51.060;3.638;2023-12-22T05:16:57;100818.03;;;8.73;100.00
78613;BME280;67933;51.060;3.638;2023-12-22T05:19:23;100815.22;;;8.76;100.00
78613;BME280;67933;51.060;3.638;2023-12-22T05:21:48;100799.34;;;8.76;100.00
78613;BME280;67933;51.060;3.638;2023-12-22T05:24:14;100803.31;;;8.67;100.00
78613;BME280;67933;51.060;3.638;2023-12-22T05:26:42;100800.97;;;8.61;100.00
78613;BME280;67933;51.060;3.638;2023-12-22T05:29:07;100807.84;;;8.65;100.00
78613;BME280;67933;51.060;3.638;2023-12-22T05:31:33;100807.34;;;8.57;100.00
78613;BME280;67933;51.060;3.638;2023-12-22T05:33:59;100812.72;;;8.56;100.00
78613;BME280;67933;51.060;3.638;2023-12-22T05:36:25;100819.00;;;8.53;100.00
78613;BME280;67933;51.060;3.638;2023-12-22T05:38:51;100816.81;;;8.44;100.00
78613;BME280;67933;51.060;3.638;2023-12-22T05:41:16;100822.09;;;8.44;100.00
78613;BME280;67933;51.060;3.638;2023-12-22T05:43:41;100824.75;;;8.44;100.00
78613;BME280;67933;51.060;3.638;2023-12-22T05:46:07;100827.19;;;8.48;100.00
78613;BME280;67933;51.060;3.638;2023-12-22T05:48:33;100815.34;;;8.38;100.00
78613;BME280;67933;51.060;3.638;2023-12-22T05:50:59;100817.91;;;8.40;100.00
78613;BME280;67933;51.060;3.638;2023-12-22T05:53:24;100821.34;;;8.42;100.00
78613;BME280;67933;51.060;3.638;2023-12-22T05:55:50;100823.91;;;8.43;100.00
78613;BME280;67933;51.060;3.638;2023-12-22T05:58:15;100818.53;;;8.45;100.00
78613;BME280;67933;51.060;3.638;2023-12-22T06:00:40;100828.47;;;8.40;100.00
78613;BME280;67933;51.060;3.638;2023-12-22T06:03:06;100821.47;;;8.39;100.00
78613;BME280;67933;51.060;3.638;2023-12-22T06:05:31;100827.06;;;8.33;100.00
78613;BME280;67933;51.060;3.638;2023-12-22T06:07:57;100819.34;;;8.28;100.00
78613;BME280;67933;51.060;3.638;2023-12-22T06:10:22;100805.53;;;8.22;100.00
78613;BME280;67933;51.060;3.638;2023-12-22T06:12:47;100814.69;;;8.15;100.00
78613;BME280;67933;51.060;3.638;2023-12-22T06:15:13;100817.56;;;8.10;100.00
78613;BME280;67933;51.060;3.638;2023-12-22T06:17:38;100812.28;;;8.10;100.00
78613;BME280;67933;51.060;3.638;2023-12-22T06:20:04;100807.81;;;8.12;100.00
78613;BME280;67933;51.060;3.638;2023-12-22T06:22:30;100805.06;;;8.13;100.00
78613;BME280;67933;51.060;3.638;2023-12-22T06:24:55;100818.44;;;8.10;100.00
78613;BME280;67933;51.060;3.638;2023-12-22T06:27:20;100811.44;;;8.09;100.00
78613;BME280;67933;51.060;3.638;2023-12-22T06:29:46;100808.66;;;8.13;100.00
78613;BME280;67933;51.060;3.638;2023-12-22T06:32:11;100803.50;;;8.09;100.00
78613;BME280;67933;51.060;3.638;2023-12-22T06:34:37;100803.38;;;8.13;100.00
78613;BME280;67933;51.060;3.638;2023-12-22T06:37:03;100810.94;;;8.20;100.00
78613;BME280;67933;51.060;3.638;2023-12-22T06:39:28;100815.34;;;8.20;100.00
78613;BME280;67933;51.060;3.638;2023-12-22T06:41:53;100813.63;;;8.19;100.00
78613;BME280;67933;51.060;3.638;2023-12-22T06:44:19;100820.16;;;8.29;100.00
78613;BME280;67933;51.060;3.638;2023-12-22T06:46:44;100823.50;;;8.34;100.00
78613;BME280;67933;51.060;3.638;2023-12-22T06:49:10;100820.25;;;8.46;100.00
78613;BME280;67933;51.060;3.638;2023-12-22T06:51:35;100822.75;;;8.49;100.00
78613;BME280;67933;51.060;3.638;2023-12-22T06:54:01;100814.09;;;8.45;100.00
78613;BME280;67933;51.060;3.638;2023-12-22T06:56:29;100826.25;;;8.49;100.00
78613;BME280;67933;51.060;3.638;2023-12-22T06:58:56;100822.03;;;8.45;100.00
78613;BME280;67933;51.060;3.638;2023-12-22T07:01:33;100814.03;;;8.47;100.00
78613;BME280;67933;51.060;3.638;2023-12-22T07:03:59;100815.59;;;8.51;100.00
78613;BME280;67933;51.060;3.638;2023-12-22T07:06:32;100801.53;;;8.51;100.00
78613;BME280;67933;51.060;3.638;2023-12-22T07:11:48;100796.63;;;8.43;100.00
78613;BME280;67933;51.060;3.638;2023-12-22T07:14:15;100786.91;;;8.43;100.00
78613;BME280;67933;51.060;3.638;2023-12-22T07:16:40;100800.88;;;8.45;100.00
78613;BME280;67933;51.060;3.638;2023-12-22T07:19:07;100796.31;;;8.49;100.00
78613;BME280;67933;51.060;3.638;2023-12-22T07:21:33;100797.84;;;8.53;100.00
78613;BME280;67933;51.060;3.638;2023-12-22T07:23:58;100796.31;;;8.49;100.00
78613;BME280;67933;51.060;3.638;2023-12-22T07:26:24;100797.16;;;8.49;100.00
78613;BME280;67933;51.060;3.638;2023-12-22T07:28:52;100798.16;;;8.47;100.00
78613;BME280;67933;51.060;3.638;2023-12-22T07:31:17;100796.31;;;8.49;100.00
78613;BME280;67933;51.060;3.638;2023-12-22T07:33:43;100790.84;;;8.52;100.00
78613;BME280;67933;51.060;3.638;2023-12-22T07:36:08;100790.72;;;8.55;100.00
78613;BME280;67933;51.060;3.638;2023-12-22T07:38:34;100786.03;;;8.60;100.00
78613;BME280;67933;51.060;3.638;2023-12-22T07:40:59;100795.75;;;8.60;100.00
78613;BME280;67933;51.060;3.638;2023-12-22T07:43:25;100802.84;;;8.59;100.00
78613;BME280;67933;51.060;3.638;2023-12-22T07:45:51;100799.25;;;8.60;100.00
78613;BME280;67933;51.060;3.638;2023-12-22T07:48:19;100802.84;;;8.59;100.00
78613;BME280;67933;51.060;3.638;2023-12-22T07:50:45;100792.44;;;8.56;100.00
78613;BME280;67933;51.060;3.638;2023-12-22T07:53:11;100793.22;;;8.58;100.00
78613;BME280;67933;51.060;3.638;2023-12-22T07:55:36;100803.63;;;8.61;100.00
78613;BME280;67933;51.060;3.638;2023-12-22T07:58:04;100797.41;;;8.62;100.00
78613;BME280;67933;51.060;3.638;2023-12-22T08:00:29;100791.97;;;8.65;100.00
78613;BME280;67933;51.060;3.638;2023-12-22T08:02:54;100783.25;;;8.63;100.00
78613;BME280;67933;51.060;3.638;2023-12-22T08:05:20;100782.41;;;8.80;100.00
78613;BME280;67933;51.060;3.638;2023-12-22T08:07:46;100786.03;;;8.77;100.00
78613;BME280;67933;51.060;3.638;2023-12-22T08:10:11;100788.47;;;8.82;100.00
78613;BME280;67933;51.060;3.638;2023-12-22T08:12:36;100786.56;;;8.84;100.00
78613;BME280;67933;51.060;3.638;2023-12-22T08:15:02;100797.25;;;8.82;100.00
78613;BME280;67933;51.060;3.638;2023-12-22T08:17:29;100806.75;;;8.86;100.00
78613;BME280;67933;51.060;3.638;2023-12-22T08:19:55;100805.56;;;8.92;100.00
78613;BME280;67933;51.060;3.638;2023-12-22T08:22:21;100797.41;;;8.97;100.00
78613;BME280;67933;51.060;3.638;2023-12-22T08:24:47;100807.50;;;9.06;100.00
78613;BME280;67933;51.060;3.638;2023-12-22T08:27:13;100804.69;;;9.09;100.00
78613;BME280;67933;51.060;3.638;2023-12-22T08:29:38;100806.00;;;9.17;100.00
78613;BME280;67933;51.060;3.638;2023-12-22T08:32:04;100809.50;;;9.18;100.00
78613;BME280;67933;51.060;3.638;2023-12-22T08:34:29;100801.41;;;9.21;100.00
78613;BME280;67933;51.060;3.638;2023-12-22T08:36:54;100815.09;;;9.29;100.00
78613;BME280;67933;51.060;3.638;2023-12-22T08:39:20;100805.75;;;9.22;100.00
78613;BME280;67933;51.060;3.638;2023-12-22T08:41:46;100817.19;;;9.22;100.00
78613;BME280;67933;51.060;3.638;2023-12-22T08:44:12;100822.09;;;9.30;100.00
78613;BME280;67933;51.060;3.638;2023-12-22T08:46:39;100827.22;;;9.33;100.00
78613;BME280;67933;51.060;3.638;2023-12-22T08:49:05;100817.50;;;9.34;100.00
78613;BME280;67933;51.060;3.638;2023-12-22T08:51:30;100823.13;;;9.27;100.00
78613;BME280;67933;51.060;3.638;2023-12-22T08:53:56;100793.94;;;9.29;100.00
78613;BME280;67933;51.060;3.638;2023-12-22T08:56:24;100811.00;;;9.39;100.00
78613;BME280;67933;51.060;3.638;2023-12-22T08:58:51;100794.50;;;9.51;100.00
78613;BME280;67933;51.060;3.638;2023-12-22T09:01:18;100812.44;;;9.62;100.00
78613;BME280;67933;51.060;3.638;2023-12-22T09:03:44;100800.97;;;9.61;100.00
78613;BME280;67933;51.060;3.638;2023-12-22T09:06:19;100802.69;;;9.62;100.00
78613;BME280;67933;51.060;3.638;2023-12-22T09:08:45;100799.44;;;9.57;100.00
78613;BME280;67933;51.060;3.638;2023-12-22T09:11:12;100796.47;;;9.63;100.00
78613;BME280;67933;51.060;3.638;2023-12-22T09:13:37;100818.88;;;9.74;100.00
78613;BME280;67933;51.060;3.638;2023-12-22T09:16:04;100807.16;;;9.78;100.00
78613;BME280;67933;51.060;3.638;2023-12-22T09:18:29;100809.38;;;9.85;100.00
78613;BME280;67933;51.060;3.638;2023-12-22T09:20:54;100797.69;;;9.89;100.00
78613;BME280;67933;51.060;3.638;2023-12-22T09:23:20;100812.31;;;9.96;100.00
78613;BME280;67933;51.060;3.638;2023-12-22T09:25:46;100805.97;;;9.99;100.00
78613;BME280;67933;51.060;3.638;2023-12-22T09:28:12;100818.13;;;10.03;100.00
78613;BME280;67933;51.060;3.638;2023-12-22T09:30:37;100817.19;;;10.04;100.00
78613;BME280;67933;51.060;3.638;2023-12-22T09:33:03;100805.78;;;10.02;100.00
78613;BME280;67933;51.060;3.638;2023-12-22T09:35:29;100813.16;;;9.97;100.00
78613;BME280;67933;51.060;3.638;2023-12-22T09:37:54;100814.88;;;9.98;100.00
78613;BME280;67933;51.060;3.638;2023-12-22T09:40:20;100820.59;;;10.06;100.00
78613;BME280;67933;51.060;3.638;2023-12-22T09:42:47;100830.00;;;10.12;100.00
78613;BME280;67933;51.060;3.638;2023-12-22T09:45:16;100822.03;;;10.12;100.00
78613;BME280;67933;51.060;3.638;2023-12-22T09:47:43;100821.19;;;10.11;100.00
78613;BME280;67933;51.060;3.638;2023-12-22T09:50:10;100833.50;;;10.12;100.00
78613;BME280;67933;51.060;3.638;2023-12-22T09:52:35;100836.44;;;10.23;100.00
78613;BME280;67933;51.060;3.638;2023-12-22T09:55:03;100825.06;;;10.21;100.00
78613;BME280;67933;51.060;3.638;2023-12-22T09:57:30;100829.41;;;10.22;100.00
78613;BME280;67933;51.060;3.638;2023-12-22T09:59:57;100830.25;;;10.23;100.00
78613;BME280;67933;51.060;3.638;2023-12-22T10:02:25;100824.88;;;10.24;100.00
78613;BME280;67933;51.060;3.638;2023-12-22T10:04:51;100836.25;;;10.26;100.00
78613;BME280;67933;51.060;3.638;2023-12-22T10:07:17;100838.63;;;10.15;100.00
78613;BME280;67933;51.060;3.638;2023-12-22T10:09:43;100829.69;;;10.18;100.00
78613;BME280;67933;51.060;3.638;2023-12-22T10:12:11;100830.97;;;10.26;100.00
78613;BME280;67933;51.060;3.638;2023-12-22T10:14:37;100849.00;;;10.35;100.00
78613;BME280;67933;51.060;3.638;2023-12-22T10:17:04;100840.97;;;10.37;100.00
78613;BME280;67933;51.060;3.638;2023-12-22T10:19:30;100834.72;;;10.22;100.00
78613;BME280;67933;51.060;3.638;2023-12-22T10:21:56;100833.88;;;10.22;100.00
78613;BME280;67933;51.060;3.638;2023-12-22T10:24:43;100847.72;;;10.27;100.00
78613;BME280;67933;51.060;3.638;2023-12-22T10:27:12;100840.13;;;10.21;100.00
78613;BME280;67933;51.060;3.638;2023-12-22T10:29:37;100857.44;;;10.11;100.00
78613;BME280;67933;51.060;3.638;2023-12-22T10:32:04;100847.09;;;10.06;100.00
78613;BME280;67933;51.060;3.638;2023-12-22T10:34:30;100846.91;;;10.09;100.00
78613;BME280;67933;51.060;3.638;2023-12-22T10:36:57;100832.81;;;10.09;100.00
78613;BME280;67933;51.060;3.638;2023-12-22T10:39:22;100852.31;;;10.08;100.00
78613;BME280;67933;51.060;3.638;2023-12-22T10:41:48;100836.81;;;10.16;100.00
78613;BME280;67933;51.060;3.638;2023-12-22T10:44:16;100847.16;;;10.22;100.00
78613;BME280;67933;51.060;3.638;2023-12-22T10:46:47;100847.03;;;10.23;100.00
78613;BME280;67933;51.060;3.638;2023-12-22T10:49:12;100831.13;;;10.23;100.00
78613;BME280;67933;51.060;3.638;2023-12-22T10:51:38;100843.28;;;10.27;100.00
78613;BME280;67933;51.060;3.638;2023-12-22T10:54:04;100844.47;;;10.37;100.00
78613;BME280;67933;51.060;3.638;2023-12-22T10:56:31;100840.53;;;10.45;100.00
78613;BME280;67933;51.060;3.638;2023-12-22T10:58:56;100833.16;;;10.50;100.00
78613;BME280;67933;51.060;3.638;2023-12-22T11:01:27;100834.00;;;10.50;100.00
78613;BME280;67933;51.060;3.638;2023-12-22T11:03:58;100826.91;;;10.51;100.00
78613;BME280;67933;51.060;3.638;2023-12-22T11:06:27;100823.03;;;10.56;100.00
78613;BME280;67933;51.060;3.638;2023-12-22T11:08:56;100807.22;;;10.55;100.00
78613;BME280;67933;51.060;3.638;2023-12-22T11:11:33;100822.19;;;10.56;100.00
78613;BME280;67933;51.060;3.638;2023-12-22T11:14:02;100829.91;;;10.60;100.00
78613;BME280;67933;51.060;3.638;2023-12-22T11:16:29;100818.59;;;10.57;100.00
78613;BME280;67933;51.060;3.638;2023-12-22T11:18:56;100810.63;;;10.57;100.00
78613;BME280;67933;51.060;3.638;2023-12-22T11:21:22;100806.34;;;10.54;100.00
78613;BME280;67933;51.060;3.638;2023-12-22T11:23:49;100826.47;;;10.58;100.00
78613;BME280;67933;51.060;3.638;2023-12-22T11:26:17;100834.00;;;10.66;100.00
78613;BME280;67933;51.060;3.638;2023-12-22T11:28:45;100835.69;;;10.67;100.00
78613;BME280;67933;51.060;3.638;2023-12-22T11:31:11;100835.69;;;10.67;100.00
78613;BME280;67933;51.060;3.638;2023-12-22T11:33:40;100823.78;;;10.74;100.00
78613;BME280;67933;51.060;3.638;2023-12-22T11:36:08;100842.44;;;10.72;100.00
78613;BME280;67933;51.060;3.638;2023-12-22T11:38:33;100844.22;;;10.72;100.00
78613;BME280;67933;51.060;3.638;2023-12-22T11:41:00;100828.81;;;10.78;100.00
78613;BME280;67933;51.060;3.638;2023-12-22T11:43:27;100835.41;;;10.71;100.00
78613;BME280;67933;51.060;3.638;2023-12-22T11:45:53;100835.41;;;10.71;100.00
78613;BME280;67933;51.060;3.638;2023-12-22T11:48:19;100831.91;;;10.71;100.00
78613;BME280;67933;51.060;3.638;2023-12-22T11:50:44;100835.34;;;10.73;100.00
78613;BME280;67933;51.060;3.638;2023-12-22T11:56:02;100838.75;;;10.75;100.00
78613;BME280;67933;51.060;3.638;2023-12-22T11:58:37;100840.81;;;10.70;100.00
78613;BME280;67933;51.060;3.638;2023-12-22T12:01:05;100838.75;;;10.75;100.00
78613;BME280;67933;51.060;3.638;2023-12-22T12:03:31;100838.75;;;10.75;100.00
78613;BME280;67933;51.060;3.638;2023-12-22T12:06:22;100846.88;;;10.72;100.00
78613;BME280;67933;51.060;3.638;2023-12-22T12:08:56;100838.75;;;10.75;100.00
78613;BME280;67933;51.060;3.638;2023-12-22T12:11:23;100835.69;;;10.67;100.00
78613;BME280;67933;51.060;3.638;2023-12-22T12:13:49;100830.41;;;10.67;100.00
78613;BME280;67933;51.060;3.638;2023-12-22T12:16:18;100827.75;;;10.67;100.00
78613;BME280;67933;51.060;3.638;2023-12-22T12:18:45;100822.22;;;10.70;100.00
78613;BME280;67933;51.060;3.638;2023-12-22T12:21:11;100828.31;;;10.72;100.00
78613;BME280;67933;51.060;3.638;2023-12-22T12:23:37;100828.94;;;10.61;100.00
78613;BME280;67933;51.060;3.638;2023-12-22T12:26:09;100818.75;;;10.54;100.00
78613;BME280;67933;51.060;3.638;2023-12-22T12:28:37;100804.94;;;10.49;100.00
78613;BME280;67933;51.060;3.638;2023-12-22T12:31:05;100804.75;;;10.52;100.00
78613;BME280;67933;51.060;3.638;2023-12-22T12:33:32;100814.66;;;10.64;100.00
78613;BME280;67933;51.060;3.638;2023-12-22T12:35:59;100810.50;;;10.74;100.00
78613;BME280;67933;51.060;3.638;2023-12-22T12:38:42;100816.22;;;10.82;100.00
78613;BME280;67933;51.060;3.638;2023-12-22T12:41:09;100820.22;;;10.89;100.00
78613;BME280;67933;51.060;3.638;2023-12-22T12:43:41;100823.81;;;10.88;100.00
78613;BME280;67933;51.060;3.638;2023-12-22T12:46:07;100822.56;;;10.79;100.00
78613;BME280;67933;51.060;3.638;2023-12-22T12:48:33;100813.94;;;10.76;100.00
78613;BME280;67933;51.060;3.638;2023-12-22T12:51:05;100829.50;;;10.82;100.00